Time;durP1;ratioP1;P1;durP2;ratioP2;P2;SDS_P1;SDS_P2;PMS_P1;PMS_P2;Temp;Humidity;BMP_temperature;BMP_pressure;BME280_temperature;BME280_humidity;BME280_pressure;Samples;Min_cycle;Max_cycle;Signal;HPM_P1;HPM_P2
2021/12/06 00:00:29;;;;;;;8.77;5.40;;;4.40;99.90;;;;;;5041352;28;20201;-65
2021/12/06 00:03:00;;;;;;;11.40;6.37;;;4.40;99.90;;;;;;5056470;28;20212;-64
2021/12/06 00:05:29;;;;;;;10.67;6.03;;;4.40;99.90;;;;;;5059671;28;20216;-64
2021/12/06 00:07:56;;;;;;;11.03;6.63;;;4.40;99.90;;;;;;5059274;28;20207;-66
2021/12/06 00:10:24;;;;;;;13.67;6.70;;;4.40;99.90;;;;;;5066854;28;20206;-65
2021/12/06 00:12:51;;;;;;;9.43;5.80;;;4.40;99.90;;;;;;5067224;28;20663;-66
2021/12/06 00:15:19;;;;;;;12.27;7.13;;;4.40;99.90;;;;;;5065793;28;20654;-65
2021/12/06 00:17:47;;;;;;;11.30;6.40;;;4.40;99.90;;;;;;5054194;28;20239;-65
2021/12/06 00:20:17;;;;;;;13.20;8.10;;;4.40;99.90;;;;;;5062680;28;20235;-65
2021/12/06 00:22:44;;;;;;;13.90;7.87;;;4.40;99.90;;;;;;5060057;28;20666;-65
2021/12/06 00:25:14;;;;;;;11.97;6.23;;;4.40;99.90;;;;;;5063240;28;20576;-65
2021/12/06 00:27:41;;;;;;;16.20;7.87;;;4.40;99.90;;;;;;5055343;28;20654;-65
2021/12/06 00:30:12;;;;;;;12.30;7.47;;;4.30;99.90;;;;;;5064992;28;20259;-65
2021/12/06 00:32:40;;;;;;;18.13;9.30;;;4.30;99.90;;;;;;5062991;28;20450;-66
2021/12/06 00:35:11;;;;;;;14.60;7.97;;;4.30;99.90;;;;;;5060409;28;20197;-65
2021/12/06 00:37:52;;;;;;;13.17;8.00;;;4.30;99.90;;;;;;5046906;28;20602;-65
2021/12/06 00:40:20;;;;;;;12.83;7.20;;;4.30;99.90;;;;;;5064285;28;20208;-65
2021/12/06 00:42:47;;;;;;;11.50;6.60;;;4.30;99.90;;;;;;5067532;28;20286;-65
2021/12/06 00:45:14;;;;;;;15.73;8.20;;;4.30;99.90;;;;;;5064975;28;20197;-65
2021/12/06 00:47:42;;;;;;;11.67;6.43;;;4.30;99.90;;;;;;5067598;28;20208;-65
2021/12/06 00:50:15;;;;;;;10.97;6.10;;;4.30;99.90;;;;;;5069052;28;20201;-65
2021/12/06 00:52:44;;;;;;;11.17;6.77;;;4.30;99.90;;;;;;5054786;28;20217;-65
2021/12/06 00:55:13;;;;;;;14.10;8.27;;;4.30;99.90;;;;;;5067155;28;20296;-65
2021/12/06 00:57:41;;;;;;;14.43;7.53;;;4.30;99.90;;;;;;5067223;28;20209;-65
2021/12/06 01:00:13;;;;;;;17.27;8.27;;;4.30;99.90;;;;;;5050367;28;20551;-66
2021/12/06 01:02:41;;;;;;;14.47;8.17;;;4.20;99.90;;;;;;5048040;28;20217;-65
2021/12/06 01:05:09;;;;;;;15.00;8.03;;;4.20;99.90;;;;;;5066934;28;20299;-64
2021/12/06 01:07:37;;;;;;;17.10;8.63;;;4.20;99.90;;;;;;5067100;28;20201;-65
2021/12/06 01:10:08;;;;;;;12.03;6.93;;;4.20;99.90;;;;;;5068689;28;20209;-65
2021/12/06 01:12:36;;;;;;;18.93;9.33;;;4.20;99.90;;;;;;5052298;28;20284;-66
2021/12/06 01:15:03;;;;;;;17.23;8.80;;;4.20;99.90;;;;;;5045983;28;20219;-65
2021/12/06 01:17:32;;;;;;;21.97;9.83;;;4.20;99.90;;;;;;5064623;28;20616;-64
2021/12/06 01:20:00;;;;;;;16.50;7.93;;;4.20;99.90;;;;;;5065608;28;20213;-66
2021/12/06 01:22:32;;;;;;;17.10;8.37;;;4.10;99.90;;;;;;5062874;28;20263;-65
2021/12/06 01:25:07;;;;;;;14.67;7.80;;;4.10;99.90;;;;;;5047554;28;20201;-65
2021/12/06 01:27:51;;;;;;;16.00;8.40;;;4.10;99.90;;;;;;5065022;28;20272;-65
2021/12/06 01:30:28;;;;;;;17.20;8.13;;;4.20;99.90;;;;;;5053847;28;20600;-65
2021/12/06 01:41:27;;;;;;;13.43;7.07;;;4.10;99.90;;;;;;5048568;28;20220;-64
2021/12/06 01:44:11;;;;;;;15.20;7.57;;;4.10;99.90;;;;;;5069072;28;20611;-65
2021/12/06 01:46:47;;;;;;;15.47;7.30;;;4.10;99.90;;;;;;5052593;28;20262;-65
2021/12/06 01:49:16;;;;;;;14.70;7.13;;;4.10;99.90;;;;;;5044677;28;20213;-65
2021/12/06 01:51:46;;;;;;;13.07;6.77;;;4.10;99.90;;;;;;5045855;28;20223;-65
2021/12/06 01:54:15;;;;;;;12.30;6.40;;;4.00;99.90;;;;;;5066798;28;20197;-65
2021/12/06 01:56:43;;;;;;;11.40;6.73;;;4.00;99.90;;;;;;5063555;28;20193;-66
2021/12/06 01:59:13;;;;;;;12.43;6.27;;;4.00;99.90;;;;;;5067788;28;20216;-66
2021/12/06 02:01:42;;;;;;;8.47;5.20;;;4.00;99.90;;;;;;5068860;28;20203;-66
2021/12/06 02:04:10;;;;;;;9.30;5.40;;;4.00;99.90;;;;;;5068530;28;20602;-65
2021/12/06 02:06:39;;;;;;;9.00;5.50;;;4.10;99.90;;;;;;5050345;28;20267;-65
2021/12/06 02:09:08;;;;;;;8.30;5.20;;;4.10;99.90;;;;;;5063480;28;20197;-65
2021/12/06 02:11:37;;;;;;;10.20;5.43;;;4.10;99.90;;;;;;5063084;28;20251;-65
2021/12/06 02:14:21;;;;;;;8.33;5.47;;;4.10;99.90;;;;;;5052165;28;20615;-66
2021/12/06 02:17:02;;;;;;;10.07;5.23;;;4.00;99.90;;;;;;5064276;28;20582;-66
2021/12/06 02:19:34;;;;;;;11.63;6.00;;;4.10;99.90;;;;;;5064867;28;20251;-66
2021/12/06 02:22:04;;;;;;;8.77;4.93;;;4.10;99.90;;;;;;5051501;28;20578;-65
2021/12/06 02:24:35;;;;;;;6.73;4.07;;;4.10;99.90;;;;;;5062174;28;20201;-66
2021/12/06 02:27:02;;;;;;;9.50;4.80;;;4.20;99.90;;;;;;5063122;28;20192;-65
2021/12/06 02:29:30;;;;;;;10.13;5.43;;;4.20;99.90;;;;;;5049890;28;20239;-66
2021/12/06 02:31:58;;;;;;;10.93;5.47;;;4.20;99.90;;;;;;5045334;28;20288;-66
2021/12/06 02:34:25;;;;;;;9.17;5.30;;;4.10;99.90;;;;;;5050071;28;20200;-66
2021/12/06 02:36:53;;;;;;;9.43;5.40;;;4.10;99.90;;;;;;5046349;28;20262;-65
2021/12/06 02:39:24;;;;;;;10.07;5.07;;;4.10;99.90;;;;;;5054027;28;20640;-66
2021/12/06 02:41:53;;;;;;;7.10;4.80;;;4.10;99.90;;;;;;5060614;28;20193;-65
2021/12/06 02:44:21;;;;;;;6.60;4.03;;;4.10;99.90;;;;;;5049473;28;20650;-65
2021/12/06 02:46:50;;;;;;;10.23;5.10;;;4.10;99.90;;;;;;5043114;28;20300;-65
2021/12/06 02:49:18;;;;;;;7.80;4.70;;;4.10;99.90;;;;;;5044252;28;20208;-65
2021/12/06 02:51:45;;;;;;;7.17;4.50;;;4.10;99.90;;;;;;5063900;28;20204;-65
2021/12/06 02:54:13;;;;;;;8.53;4.57;;;4.00;99.90;;;;;;5042962;28;20292;-66
2021/12/06 02:56:53;;;;;;;7.80;4.40;;;4.00;99.90;;;;;;5047180;28;20266;-66
2021/12/06 02:59:23;;;;;;;4.23;3.30;;;4.00;99.90;;;;;;5051452;28;20193;-66
2021/12/06 03:01:54;;;;;;;5.30;3.07;;;4.00;99.90;;;;;;5066089;28;20288;-66
2021/12/06 03:04:21;;;;;;;5.20;3.23;;;3.90;99.90;;;;;;5055524;28;20217;-66
2021/12/06 03:06:53;;;;;;;6.67;3.27;;;3.90;99.90;;;;;;5090104;28;20189;-65
2021/12/06 03:09:26;;;;;;;6.23;2.93;;;3.90;99.90;;;;;;5076931;28;20203;-65
2021/12/06 03:12:02;;;;;;;4.00;2.93;;;3.90;99.90;;;;;;5094130;28;20177;-65
2021/12/06 03:14:36;;;;;;;4.70;2.87;;;3.90;99.90;;;;;;5091977;28;20181;-65
2021/12/06 03:17:11;;;;;;;3.60;2.60;;;3.80;99.90;;;;;;5073847;28;20181;-65
2021/12/06 03:19:38;;;;;;;4.27;2.57;;;3.80;99.90;;;;;;5051981;28;20204;-65
2021/12/06 03:22:08;;;;;;;4.03;2.53;;;3.70;99.90;;;;;;5049512;28;20326;-65
2021/12/06 03:24:35;;;;;;;2.97;2.20;;;3.70;99.90;;;;;;5063681;28;20351;-65
2021/12/06 03:27:05;;;;;;;3.40;2.47;;;3.70;99.90;;;;;;5062872;28;20192;-66
2021/12/06 03:29:33;;;;;;;4.03;2.37;;;3.60;99.90;;;;;;5047141;28;20236;-65
2021/12/06 03:32:01;;;;;;;4.70;2.73;;;3.70;99.90;;;;;;5063473;28;20212;-65
2021/12/06 03:34:29;;;;;;;3.90;2.10;;;3.60;99.90;;;;;;5066148;28;20285;-66
2021/12/06 03:37:01;;;;;;;2.70;2.10;;;3.60;99.90;;;;;;5043497;28;20292;-65
2021/12/06 03:39:34;;;;;;;2.33;2.13;;;3.60;99.90;;;;;;5049654;28;20642;-64
2021/12/06 03:42:06;;;;;;;3.13;2.07;;;3.60;99.90;;;;;;5050766;28;20286;-65
2021/12/06 03:44:34;;;;;;;4.13;2.30;;;3.60;99.90;;;;;;5038316;28;20569;-65
2021/12/06 03:47:05;;;;;;;2.70;2.20;;;3.60;99.90;;;;;;5040028;28;20338;-65
2021/12/06 03:49:34;;;;;;;3.10;2.50;;;3.60;99.90;;;;;;5055280;28;20755;-65
2021/12/06 03:52:02;;;;;;;3.73;2.30;;;3.60;99.90;;;;;;5049625;28;20205;-65
2021/12/06 03:54:30;;;;;;;3.77;2.30;;;3.60;99.90;;;;;;5044930;28;20560;-65
2021/12/06 03:56:58;;;;;;;3.27;2.33;;;3.60;99.90;;;;;;5039926;28;20236;-65
2021/12/06 03:59:28;;;;;;;3.70;2.20;;;3.60;99.90;;;;;;5065153;28;20693;-65
2021/12/06 04:01:56;;;;;;;3.43;2.10;;;3.60;99.90;;;;;;5049962;28;20514;-65
2021/12/06 04:04:25;;;;;;;2.23;2.03;;;3.60;99.90;;;;;;5050970;28;20278;-65
2021/12/06 04:06:54;;;;;;;2.80;2.10;;;3.60;99.90;;;;;;5038575;28;20296;-65
2021/12/06 04:09:22;;;;;;;2.27;1.70;;;3.60;99.90;;;;;;5046357;28;20205;-65
2021/12/06 04:11:50;;;;;;;4.20;2.43;;;3.60;99.90;;;;;;5049265;28;20202;-65
2021/12/06 04:14:19;;;;;;;3.20;2.23;;;3.60;99.90;;;;;;5050213;28;20618;-65
2021/12/06 04:16:50;;;;;;;2.33;1.77;;;3.60;99.90;;;;;;5050335;28;20277;-64
2021/12/06 04:19:18;;;;;;;4.67;2.13;;;3.60;99.90;;;;;;5067618;28;20673;-65
2021/12/06 04:21:48;;;;;;;2.37;2.17;;;3.60;99.90;;;;;;5049223;28;20205;-65
2021/12/06 04:24:16;;;;;;;3.63;2.20;;;3.60;99.90;;;;;;5043697;28;20324;-65
2021/12/06 04:26:43;;;;;;;2.73;1.90;;;3.50;99.90;;;;;;5050600;28;20206;-64
2021/12/06 04:29:13;;;;;;;2.83;2.10;;;3.50;99.90;;;;;;5062996;28;20240;-65
2021/12/06 04:31:48;;;;;;;1.80;1.60;;;3.60;99.90;;;;;;5053844;28;20669;-65
2021/12/06 04:34:18;;;;;;;2.23;1.90;;;3.60;99.90;;;;;;5067004;28;20201;-65
2021/12/06 04:36:47;;;;;;;1.93;1.73;;;3.60;99.90;;;;;;5037083;28;20226;-64
2021/12/06 04:39:18;;;;;;;2.53;1.70;;;3.60;99.90;;;;;;5064617;28;20205;-64
2021/12/06 04:41:46;;;;;;;2.73;1.83;;;3.60;99.90;;;;;;5047578;28;20207;-64
2021/12/06 04:44:15;;;;;;;1.97;1.77;;;3.50;99.90;;;;;;5053372;28;20221;-65
2021/12/06 04:46:43;;;;;;;1.57;1.47;;;3.60;99.90;;;;;;5054030;28;20296;-65
2021/12/06 04:49:10;;;;;;;2.00;1.80;;;3.50;99.90;;;;;;5051702;28;20209;-64
2021/12/06 04:51:42;;;;;;;1.63;1.53;;;3.50;99.90;;;;;;5046083;28;20293;-65
2021/12/06 04:54:11;;;;;;;1.50;1.37;;;3.60;99.90;;;;;;5053591;28;20208;-64
2021/12/06 04:56:41;;;;;;;1.97;1.77;;;3.60;99.90;;;;;;5064643;28;20583;-65
2021/12/06 04:59:16;;;;;;;2.83;1.77;;;3.50;99.90;;;;;;5057347;28;20205;-64
2021/12/06 05:01:47;;;;;;;1.57;1.43;;;4.60;99.90;;;;;;5070209;28;20276;-65
2021/12/06 05:04:19;;;;;;;1.40;1.30;;;3.50;99.90;;;;;;5052886;28;20244;-65
2021/12/06 05:06:55;;;;;;;2.60;1.50;;;3.60;99.90;;;;;;5053482;28;20427;-66
2021/12/06 05:09:26;;;;;;;1.53;1.43;;;3.60;99.90;;;;;;5052018;28;20591;-65
2021/12/06 05:11:53;;;;;;;2.27;1.70;;;3.60;99.90;;;;;;5070942;28;20197;-65
2021/12/06 05:14:23;;;;;;;3.17;1.53;;;3.60;99.90;;;;;;5068217;28;20193;-65
2021/12/06 05:16:50;;;;;;;1.67;1.57;;;3.60;99.90;;;;;;5050739;28;20573;-65
2021/12/06 05:19:18;;;;;;;2.00;1.50;;;3.70;99.90;;;;;;5053830;28;20229;-65
2021/12/06 05:21:45;;;;;;;1.57;1.47;;;3.60;99.90;;;;;;5042376;28;20211;-65
2021/12/06 05:24:15;;;;;;;1.40;1.30;;;3.70;99.90;;;;;;5051765;28;20235;-65
2021/12/06 05:26:44;;;;;;;1.60;1.50;;;3.70;99.90;;;;;;5052784;28;20201;-65
2021/12/06 05:29:16;;;;;;;1.40;1.30;;;3.70;99.90;;;;;;5061879;28;20236;-65
2021/12/06 05:31:43;;;;;;;1.43;1.33;;;3.70;99.90;;;;;;5042606;28;20652;-64
2021/12/06 05:34:16;;;;;;;2.50;1.90;;;3.70;99.90;;;;;;5066086;28;20197;-65
2021/12/06 05:36:44;;;;;;;3.23;2.47;;;3.70;99.90;;;;;;5069942;28;20189;-64
2021/12/06 05:39:12;;;;;;;2.17;1.90;;;3.80;99.90;;;;;;5067584;28;20197;-65
2021/12/06 05:41:42;;;;;;;2.40;1.70;;;3.70;99.90;;;;;;5066806;28;20221;-65
2021/12/06 05:44:09;;;;;;;1.93;1.33;;;3.70;99.90;;;;;;5070974;28;20205;-65
2021/12/06 05:46:36;;;;;;;3.67;1.53;;;3.70;99.90;;;;;;5063337;28;20264;-65
2021/12/06 05:49:04;;;;;;;1.53;1.43;;;3.70;99.90;;;;;;5066048;28;20189;-65
2021/12/06 05:51:31;;;;;;;1.70;1.50;;;3.70;99.90;;;;;;5069095;28;20279;-65
2021/12/06 05:53:58;;;;;;;2.30;1.40;;;3.70;99.90;;;;;;5062414;28;20200;-65
2021/12/06 05:56:25;;;;;;;1.47;1.37;;;3.60;99.90;;;;;;5067782;28;20189;-64
2021/12/06 05:58:54;;;;;;;2.40;1.60;;;3.60;99.90;;;;;;5059455;28;20673;-64
2021/12/06 06:01:24;;;;;;;1.40;1.30;;;4.90;99.90;;;;;;5064743;28;20372;-65
2021/12/06 06:03:51;;;;;;;2.03;1.40;;;3.60;99.90;;;;;;5060835;28;20204;-65
2021/12/06 06:06:18;;;;;;;1.40;1.30;;;3.60;99.90;;;;;;5052585;28;20201;-65
2021/12/06 06:08:45;;;;;;;2.53;1.40;;;3.60;99.90;;;;;;5057833;28;20213;-65
2021/12/06 06:11:12;;;;;;;2.90;1.90;;;3.60;99.90;;;;;;5062016;28;20685;-65
2021/12/06 06:13:39;;;;;;;2.23;1.67;;;3.60;99.90;;;;;;5051660;28;20255;-66
2021/12/06 06:16:08;;;;;;;1.73;1.63;;;3.60;99.90;;;;;;5060571;28;20242;-66
2021/12/06 06:18:35;;;;;;;1.67;1.57;;;3.60;99.90;;;;;;5062801;28;20193;-65
2021/12/06 06:21:02;;;;;;;4.60;1.50;;;3.60;99.90;;;;;;5060677;28;20204;-66
2021/12/06 06:23:29;;;;;;;2.63;1.53;;;3.60;99.90;;;;;;5057371;28;20201;-66
2021/12/06 06:25:57;;;;;;;2.00;1.23;;;3.60;99.90;;;;;;5061709;28;20566;-65
2021/12/06 06:28:24;;;;;;;1.47;1.20;;;3.60;99.90;;;;;;5053321;28;20200;-65
2021/12/06 06:30:51;;;;;;;1.30;1.20;;;3.60;99.90;;;;;;5065193;28;20565;-65
2021/12/06 06:33:20;;;;;;;1.60;1.43;;;3.60;99.90;;;;;;5060247;28;20244;-65
2021/12/06 06:35:47;;;;;;;1.33;1.17;;;3.60;99.90;;;;;;5043594;28;20208;-66
2021/12/06 06:38:15;;;;;;;1.40;1.30;;;3.60;99.90;;;;;;5056428;28;20232;-65
2021/12/06 06:40:42;;;;;;;1.63;1.40;;;3.60;99.90;;;;;;5066357;28;20201;-65
2021/12/06 06:43:09;;;;;;;1.67;1.30;;;3.60;99.90;;;;;;5070905;28;20279;-65
2021/12/06 06:45:37;;;;;;;1.27;1.20;;;3.60;99.90;;;;;;5064874;28;20201;-65
2021/12/06 06:48:04;;;;;;;1.23;1.13;;;3.60;99.90;;;;;;5058541;28;20193;-65
2021/12/06 06:50:33;;;;;;;1.77;1.27;;;3.60;99.90;;;;;;5065189;28;20198;-65
2021/12/06 06:53:01;;;;;;;3.77;1.50;;;3.60;99.90;;;;;;5061593;28;20201;-65
2021/12/06 06:55:28;;;;;;;1.70;1.30;;;3.60;99.90;;;;;;5033763;28;20277;-65
2021/12/06 06:57:55;;;;;;;2.53;1.20;;;3.60;99.90;;;;;;5058013;28;20228;-65
2021/12/06 07:00:25;;;;;;;1.47;1.10;;;3.60;99.90;;;;;;5056922;28;20198;-65
2021/12/06 07:02:53;;;;;;;1.40;1.20;;;3.60;99.90;;;;;;5061732;28;20368;-65
2021/12/06 07:05:20;;;;;;;2.07;1.23;;;3.60;99.90;;;;;;5059709;28;20299;-65
2021/12/06 07:07:48;;;;;;;1.67;1.57;;;3.50;99.90;;;;;;5056261;28;20202;-65
2021/12/06 07:10:15;;;;;;;2.40;2.03;;;3.50;99.90;;;;;;5062946;28;20243;-65
2021/12/06 07:12:46;;;;;;;1.70;1.60;;;3.50;99.90;;;;;;5062404;28;20201;-65
2021/12/06 07:15:18;;;;;;;1.70;1.60;;;3.50;99.90;;;;;;5054116;28;20202;-65
2021/12/06 07:17:46;;;;;;;4.07;1.57;;;3.50;99.90;;;;;;5051237;28;20201;-64
2021/12/06 07:20:14;;;;;;;2.80;1.50;;;3.50;99.90;;;;;;5065473;28;20223;-65
2021/12/06 07:22:42;;;;;;;1.00;1.00;;;3.50;99.90;;;;;;5051133;28;20202;-64
2021/12/06 07:25:12;;;;;;;1.57;1.40;;;3.60;99.90;;;;;;5052166;28;20647;-65
2021/12/06 07:27:40;;;;;;;3.00;1.57;;;3.60;99.90;;;;;;5053664;28;20276;-65
2021/12/06 07:30:08;;;;;;;1.90;1.50;;;3.60;99.90;;;;;;5064665;28;20713;-65
2021/12/06 07:32:35;;;;;;;1.67;1.53;;;3.70;99.90;;;;;;5064477;28;20201;-65
2021/12/06 07:35:04;;;;;;;2.60;1.53;;;3.70;99.90;;;;;;5068042;28;20641;-65
2021/12/06 07:37:31;;;;;;;2.07;1.50;;;3.70;99.90;;;;;;5053880;28;20198;-65
2021/12/06 07:39:58;;;;;;;1.87;1.50;;;3.70;99.90;;;;;;5065625;28;20204;-64
2021/12/06 07:42:27;;;;;;;2.00;1.80;;;3.70;99.90;;;;;;5055555;28;20263;-65
2021/12/06 07:44:54;;;;;;;2.63;1.50;;;3.70;99.90;;;;;;5060822;28;20201;-65
2021/12/06 07:47:21;;;;;;;1.30;1.10;;;3.70;99.90;;;;;;5056206;28;20206;-65
2021/12/06 07:49:48;;;;;;;1.43;1.33;;;3.70;99.90;;;;;;5062093;28;20224;-65
2021/12/06 07:52:16;;;;;;;1.30;1.03;;;3.60;99.90;;;;;;5056239;28;20232;-65
2021/12/06 07:54:43;;;;;;;3.60;1.30;;;3.60;99.90;;;;;;5062219;28;20192;-65
2021/12/06 07:57:11;;;;;;;3.27;2.20;;;3.60;99.90;;;;;;5059872;28;20232;-64
2021/12/06 07:59:40;;;;;;;10.80;2.87;;;3.70;99.90;;;;;;5067135;28;20247;-65
2021/12/06 08:02:10;;;;;;;4.10;2.23;;;3.60;99.90;;;;;;5067925;28;20208;-65
2021/12/06 08:04:39;;;;;;;3.47;1.60;;;3.60;99.90;;;;;;5067091;28;20193;-64
2021/12/06 08:07:06;;;;;;;3.53;1.47;;;3.60;99.90;;;;;;5036839;28;20216;-65
2021/12/06 08:09:33;;;;;;;1.40;1.20;;;3.50;99.90;;;;;;5037015;28;20197;-64
2021/12/06 08:12:00;;;;;;;3.93;1.33;;;3.50;99.90;;;;;;5067241;28;20200;-64
2021/12/06 08:14:28;;;;;;;3.93;1.20;;;3.50;99.90;;;;;;5052169;28;20205;-64
2021/12/06 08:16:57;;;;;;;1.40;1.30;;;3.50;99.90;;;;;;5059909;28;20632;-64
2021/12/06 08:19:24;;;;;;;1.87;1.20;;;3.50;99.90;;;;;;5065895;28;20185;-64
2021/12/06 08:21:52;;;;;;;1.33;1.23;;;3.50;99.90;;;;;;5060586;28;20200;-64
2021/12/06 08:24:19;;;;;;;3.93;1.63;;;3.50;99.90;;;;;;5058814;28;20622;-65
2021/12/06 08:26:47;;;;;;;1.10;1.00;;;3.50;99.90;;;;;;5042634;28;20221;-65
2021/12/06 08:29:16;;;;;;;1.80;1.33;;;3.50;99.90;;;;;;5056618;28;20699;-64
2021/12/06 08:31:44;;;;;;;2.83;1.30;;;3.50;99.90;;;;;;5064424;28;20685;-65
2021/12/06 08:34:13;;;;;;;5.13;1.17;;;3.40;99.90;;;;;;5070885;28;20624;-65
2021/12/06 08:36:41;;;;;;;1.20;0.90;;;3.50;99.90;;;;;;5061090;28;20190;-65
2021/12/06 08:39:08;;;;;;;2.07;1.10;;;3.50;99.90;;;;;;5055321;28;20330;-65
2021/12/06 08:41:36;;;;;;;1.57;0.90;;;3.50;99.90;;;;;;5055947;28;20209;-65
2021/12/06 08:44:04;;;;;;;1.47;1.37;;;3.50;99.90;;;;;;5054840;28;20738;-65
2021/12/06 08:46:35;;;;;;;1.60;1.10;;;3.50;99.90;;;;;;5057539;28;20214;-65
2021/12/06 08:49:05;;;;;;;1.47;1.37;;;3.60;99.90;;;;;;5056426;28;20635;-65
2021/12/06 08:51:36;;;;;;;1.70;1.43;;;3.60;99.90;;;;;;5059909;28;20266;-65
2021/12/06 08:54:06;;;;;;;2.20;1.53;;;3.60;99.90;;;;;;5057473;28;20272;-65
2021/12/06 08:56:37;;;;;;;3.17;1.33;;;3.60;99.90;;;;;;5061787;28;20199;-66
2021/12/06 08:59:05;;;;;;;1.33;1.23;;;3.60;99.90;;;;;;5066147;28;20212;-65
2021/12/06 09:01:33;;;;;;;1.20;1.20;;;3.60;99.90;;;;;;5070255;28;20215;-65
2021/12/06 09:04:00;;;;;;;2.00;1.10;;;3.50;99.90;;;;;;5070982;28;20200;-65
2021/12/06 09:06:28;;;;;;;2.17;1.30;;;3.60;99.90;;;;;;5070036;28;20689;-65
2021/12/06 09:08:56;;;;;;;1.10;1.00;;;3.60;99.90;;;;;;5053521;28;20228;-65
2021/12/06 09:11:24;;;;;;;1.00;1.00;;;3.50;99.90;;;;;;5067941;28;20561;-65
2021/12/06 09:13:51;;;;;;;1.47;1.17;;;3.60;99.90;;;;;;5061297;28;20630;-65
2021/12/06 09:16:21;;;;;;;1.60;1.37;;;3.50;99.90;;;;;;5057182;28;20225;-64
2021/12/06 09:18:48;;;;;;;3.20;1.57;;;3.50;99.90;;;;;;5071795;28;20292;-65
2021/12/06 09:21:20;;;;;;;1.63;1.27;;;3.50;99.90;;;;;;5066389;28;20208;-65
2021/12/06 09:23:48;;;;;;;1.53;1.30;;;3.50;99.90;;;;;;5061646;28;20197;-65
2021/12/06 09:26:17;;;;;;;0.90;0.90;;;3.50;99.90;;;;;;5054586;28;20308;-65
2021/12/06 09:28:45;;;;;;;1.07;1.07;;;3.50;99.90;;;;;;5057037;28;20729;-65
2021/12/06 09:31:13;;;;;;;1.53;1.00;;;3.50;99.90;;;;;;5064105;28;20189;-65
2021/12/06 09:33:40;;;;;;;1.33;0.80;;;3.40;99.90;;;;;;5069512;28;20270;-65
2021/12/06 09:36:10;;;;;;;2.37;0.90;;;3.40;99.90;;;;;;5063454;28;20185;-65
2021/12/06 09:38:39;;;;;;;1.00;1.00;;;3.40;99.90;;;;;;5069329;28;20553;-65
2021/12/06 09:41:11;;;;;;;1.20;1.10;;;3.40;99.90;;;;;;5056233;28;20531;-65
2021/12/06 09:43:40;;;;;;;1.77;1.30;;;3.40;99.90;;;;;;5060632;28;20192;-65
2021/12/06 09:46:07;;;;;;;1.00;0.90;;;3.40;99.90;;;;;;5055969;28;20218;-65
2021/12/06 09:48:36;;;;;;;1.77;1.20;;;3.40;99.90;;;;;;5063082;28;20197;-65
2021/12/06 09:51:06;;;;;;;2.07;1.50;;;3.40;99.90;;;;;;5055589;28;21060;-65
2021/12/06 09:53:37;;;;;;;2.60;1.70;;;3.40;99.90;;;;;;5062887;28;20197;-65
2021/12/06 09:56:07;;;;;;;1.57;1.30;;;3.40;99.90;;;;;;5059353;28;20201;-65
2021/12/06 09:58:35;;;;;;;5.03;1.60;;;3.40;99.90;;;;;;5067731;28;20580;-65
2021/12/06 10:01:11;;;;;;;1.30;1.20;;;3.50;99.90;;;;;;5062607;28;20194;-65
2021/12/06 10:03:38;;;;;;;1.47;1.30;;;3.50;99.90;;;;;;5095621;28;20177;-64
2021/12/06 10:06:06;;;;;;;1.30;1.20;;;3.50;99.90;;;;;;5092096;28;20193;-64
2021/12/06 10:08:36;;;;;;;2.30;1.70;;;3.60;99.90;;;;;;5077128;28;20189;-64
2021/12/06 10:11:04;;;;;;;1.67;1.47;;;3.60;99.90;;;;;;5066270;28;20639;-65
2021/12/06 10:13:33;;;;;;;1.17;1.07;;;3.60;99.90;;;;;;5056514;28;20193;-63
2021/12/06 10:16:01;;;;;;;3.17;1.00;;;3.70;99.90;;;;;;5058807;28;20209;-65
2021/12/06 10:18:31;;;;;;;0.80;0.80;;;3.70;99.90;;;;;;5058567;28;20228;-65
2021/12/06 10:21:00;;;;;;;1.13;0.97;;;3.70;99.90;;;;;;5063105;28;20208;-65
2021/12/06 10:23:27;;;;;;;3.13;1.20;;;3.70;99.90;;;;;;5060241;28;20200;-65
2021/12/06 10:25:56;;;;;;;1.03;1.03;;;3.70;99.90;;;;;;5059133;28;20253;-65
2021/12/06 10:28:30;;;;;;;1.67;1.20;;;3.80;99.90;;;;;;5062083;28;20193;-65
2021/12/06 10:31:01;;;;;;;2.60;0.90;;;3.80;99.90;;;;;;5058685;28;20205;-65
2021/12/06 10:33:32;;;;;;;3.10;1.40;;;3.80;99.90;;;;;;5058027;28;20208;-64
2021/12/06 10:36:03;;;;;;;2.53;1.00;;;3.80;99.90;;;;;;5053792;28;20202;-65
2021/12/06 10:38:33;;;;;;;1.20;1.00;;;3.80;99.90;;;;;;5056044;28;20933;-64
2021/12/06 10:41:03;;;;;;;4.47;1.00;;;3.70;99.90;;;;;;5054265;28;20198;-65
2021/12/06 10:43:31;;;;;;;1.03;0.90;;;3.70;99.90;;;;;;5058998;28;20224;-64
2021/12/06 10:45:58;;;;;;;1.40;1.10;;;3.70;99.90;;;;;;5054113;28;20678;-64
2021/12/06 10:48:28;;;;;;;2.17;1.13;;;3.70;99.90;;;;;;5060875;28;20542;-65
2021/12/06 10:51:03;;;;;;;1.00;1.00;;;3.70;99.90;;;;;;5056113;28;20197;-64
2021/12/06 10:53:37;;;;;;;1.07;0.97;;;3.60;99.90;;;;;;5062970;28;20538;-66
2021/12/06 10:56:14;;;;;;;1.23;1.13;;;3.60;99.90;;;;;;5063452;28;20250;-64
2021/12/06 10:58:42;;;;;;;2.40;0.70;;;3.70;99.90;;;;;;5069221;28;20208;-64
2021/12/06 11:01:13;;;;;;;0.73;0.73;;;3.70;99.90;;;;;;5038309;28;20288;-65
2021/12/06 11:03:45;;;;;;;2.60;0.97;;;3.70;99.90;;;;;;5059031;28;20225;-65
2021/12/06 11:06:19;;;;;;;1.03;1.00;;;3.70;99.90;;;;;;5059193;28;20209;-64
2021/12/06 11:08:48;;;;;;;1.50;0.80;;;3.70;99.90;;;;;;5039141;28;20298;-64
2021/12/06 11:11:19;;;;;;;1.23;0.80;;;3.70;99.90;;;;;;5062129;28;20189;-64
2021/12/06 11:13:50;;;;;;;1.00;0.90;;;3.70;99.70;;;;;;5053405;28;20277;-65
2021/12/06 11:16:20;;;;;;;2.13;1.17;;;3.70;99.70;;;;;;5051745;28;20632;-64
2021/12/06 11:18:53;;;;;;;1.27;1.10;;;3.70;99.40;;;;;;5063666;28;20248;-64
2021/12/06 11:21:42;;;;;;;1.00;0.90;;;3.70;99.30;;;;;;5051064;28;20210;-64
2021/12/06 11:24:16;;;;;;;2.20;1.77;;;3.70;99.20;;;;;;5052878;28;20194;-64
2021/12/06 11:26:49;;;;;;;0.90;0.90;;;3.70;99.00;;;;;;5052970;28;20210;-64
2021/12/06 11:29:20;;;;;;;0.90;0.90;;;3.70;98.90;;;;;;5053006;28;20233;-64
2021/12/06 11:32:05;;;;;;;1.00;1.00;;;3.70;98.80;;;;;;5055254;28;20197;-64
2021/12/06 11:34:36;;;;;;;1.57;0.97;;;3.70;98.60;;;;;;5043505;28;20193;-65
2021/12/06 11:37:12;;;;;;;0.80;0.80;;;3.70;98.50;;;;;;5060023;28;20600;-65
2021/12/06 11:39:39;;;;;;;0.90;0.63;;;3.70;98.50;;;;;;5060199;28;20193;-65
2021/12/06 11:42:07;;;;;;;1.23;0.93;;;3.70;98.60;;;;;;5058697;28;20202;-65
2021/12/06 11:44:38;;;;;;;1.53;1.23;;;3.70;98.50;;;;;;5037551;28;20776;-64
2021/12/06 11:47:10;;;;;;;2.90;1.30;;;3.70;98.40;;;;;;5057030;28;20305;-65
2021/12/06 11:49:41;;;;;;;4.60;1.17;;;3.70;98.10;;;;;;5059077;28;20196;-64
2021/12/06 11:52:12;;;;;;;3.43;1.47;;;3.70;98.10;;;;;;5055369;28;20621;-65
2021/12/06 11:54:44;;;;;;;0.80;0.80;;;3.70;97.90;;;;;;5056807;28;20202;-65
2021/12/06 11:57:18;;;;;;;1.10;1.03;;;3.60;97.90;;;;;;5057449;28;20556;-65
2021/12/06 11:59:48;;;;;;;0.80;0.80;;;3.60;97.80;;;;;;5063012;28;20599;-64
2021/12/06 12:02:15;;;;;;;0.60;0.60;;;3.60;97.90;;;;;;5045302;28;20254;-65
2021/12/06 12:04:43;;;;;;;1.13;0.97;;;3.50;98.00;;;;;;5067728;28;20279;-64
2021/12/06 12:07:11;;;;;;;6.43;0.80;;;3.60;98.00;;;;;;5047235;28;20213;-65
2021/12/06 12:09:40;;;;;;;5.30;0.70;;;3.60;98.10;;;;;;5053298;28;20192;-65
2021/12/06 12:12:11;;;;;;;1.13;1.03;;;3.60;98.10;;;;;;5058592;28;20540;-65
2021/12/06 12:14:42;;;;;;;1.33;0.90;;;3.60;97.90;;;;;;5050961;28;20634;-65
2021/12/06 12:17:12;;;;;;;4.07;1.00;;;3.80;98.00;;;;;;5050771;28;20213;-64
2021/12/06 12:19:40;;;;;;;1.80;0.70;;;3.60;98.00;;;;;;5057382;28;20227;-64
2021/12/06 12:22:15;;;;;;;3.20;0.70;;;3.60;98.00;;;;;;5064950;28;20283;-65
2021/12/06 12:24:49;;;;;;;1.30;0.83;;;3.60;98.00;;;;;;5060473;28;20581;-65
2021/12/06 12:27:24;;;;;;;0.70;0.70;;;3.60;98.00;;;;;;5054117;28;20565;-65
2021/12/06 12:29:55;;;;;;;1.70;0.80;;;3.60;97.90;;;;;;5052450;28;20225;-64
2021/12/06 12:32:23;;;;;;;0.70;0.70;;;3.60;97.70;;;;;;5048764;28;20205;-64
2021/12/06 12:34:53;;;;;;;0.97;0.70;;;3.50;97.60;;;;;;5060471;28;20227;-64
2021/12/06 12:37:22;;;;;;;1.90;0.70;;;4.60;98.10;;;;;;5061571;28;20191;-64
2021/12/06 12:39:59;;;;;;;1.27;0.60;;;3.50;97.60;;;;;;5060717;28;20207;-64
2021/12/06 12:42:27;;;;;;;0.70;0.70;;;3.50;97.70;;;;;;5057287;28;20633;-65
2021/12/06 12:44:57;;;;;;;0.80;0.77;;;3.60;97.70;;;;;;5059108;28;20217;-64
2021/12/06 12:47:26;;;;;;;2.13;1.10;;;3.60;97.60;;;;;;5058997;28;20559;-65
2021/12/06 12:49:57;;;;;;;4.67;2.30;;;3.60;97.40;;;;;;5057835;28;20293;-65
2021/12/06 12:52:40;;;;;;;3.50;1.90;;;3.60;97.30;;;;;;5059574;28;20205;-65
2021/12/06 12:55:22;;;;;;;2.97;1.83;;;3.60;97.30;;;;;;5061570;28;20596;-65
2021/12/06 12:57:50;;;;;;;1.67;1.30;;;3.60;97.00;;;;;;5063473;28;20273;-65
2021/12/06 13:00:20;;;;;;;1.60;1.50;;;3.60;96.90;;;;;;5058981;28;20208;-64
2021/12/06 13:02:50;;;;;;;2.10;1.33;;;3.60;97.00;;;;;;5062840;28;20278;-65
2021/12/06 13:05:21;;;;;;;1.23;1.10;;;3.60;96.90;;;;;;5072143;28;20267;-65
2021/12/06 13:08:06;;;;;;;1.53;0.80;;;3.60;96.60;;;;;;5056819;28;20205;-64
2021/12/06 13:10:48;;;;;;;1.03;0.90;;;3.50;96.10;;;;;;5057321;28;20588;-65
2021/12/06 13:13:28;;;;;;;0.80;0.80;;;3.40;95.80;;;;;;5058111;28;20221;-65
2021/12/06 13:16:01;;;;;;;0.80;0.80;;;3.40;95.80;;;;;;5060716;28;20519;-64